sensor_id;sensor_type;location;lat;lon;timestamp;P1;durP1;ratioP1;P2;durP2;ratioP2
63193;SDS011;49289;51.670;5.624;2022-09-25T00:01:12;5.60;;;2.00;;
63193;SDS011;49289;51.670;5.624;2022-09-25T00:02:59;4.60;;;2.00;;
63193;SDS011;49289;51.670;5.624;2022-09-25T00:04:47;3.20;;;1.90;;
63193;SDS011;49289;51.670;5.624;2022-09-25T00:06:35;4.40;;;1.90;;
63193;SDS011;49289;51.670;5.624;2022-09-25T00:08:23;5.00;;;1.80;;
63193;SDS011;49289;51.670;5.624;2022-09-25T00:10:12;3.80;;;1.90;;
63193;SDS011;49289;51.670;5.624;2022-09-25T00:11:59;5.50;;;1.80;;
63193;SDS011;49289;51.670;5.624;2022-09-25T00:13:46;4.40;;;1.80;;
63193;SDS011;49289;51.670;5.624;2022-09-25T00:15:33;5.30;;;1.80;;
63193;SDS011;49289;51.670;5.624;2022-09-25T00:17:20;5.30;;;2.00;;
63193;SDS011;49289;51.670;5.624;2022-09-25T00:19:08;5.40;;;2.20;;
63193;SDS011;49289;51.670;5.624;2022-09-25T00:21:04;3.30;;;2.00;;
63193;SDS011;49289;51.670;5.624;2022-09-25T00:22:52;6.60;;;2.10;;
63193;SDS011;49289;51.670;5.624;2022-09-25T00:24:42;4.90;;;1.80;;
63193;SDS011;49289;51.670;5.624;2022-09-25T00:26:30;4.30;;;2.10;;
63193;SDS011;49289;51.670;5.624;2022-09-25T00:28:17;5.70;;;2.10;;
63193;SDS011;49289;51.670;5.624;2022-09-25T00:30:05;4.60;;;2.00;;
63193;SDS011;49289;51.670;5.624;2022-09-25T00:31:53;2.80;;;1.60;;
63193;SDS011;49289;51.670;5.624;2022-09-25T00:33:40;4.10;;;1.80;;
63193;SDS011;49289;51.670;5.624;2022-09-25T00:35:28;2.90;;;1.80;;
63193;SDS011;49289;51.670;5.624;2022-09-25T00:37:16;4.50;;;1.90;;
63193;SDS011;49289;51.670;5.624;2022-09-25T00:39:05;5.70;;;2.00;;
63193;SDS011;49289;51.670;5.624;2022-09-25T00:40:53;4.50;;;2.20;;
63193;SDS011;49289;51.670;5.624;2022-09-25T00:42:41;3.30;;;1.80;;
63193;SDS011;49289;51.670;5.624;2022-09-25T00:46:41;5.30;;;2.10;;
63193;SDS011;49289;51.670;5.624;2022-09-25T00:48:28;2.80;;;2.20;;
63193;SDS011;49289;51.670;5.624;2022-09-25T00:50:18;5.30;;;2.20;;
63193;SDS011;49289;51.670;5.624;2022-09-25T00:52:05;4.40;;;2.20;;
63193;SDS011;49289;51.670;5.624;2022-09-25T00:53:53;6.90;;;2.50;;
63193;SDS011;49289;51.670;5.624;2022-09-25T00:55:42;3.90;;;2.20;;
63193;SDS011;49289;51.670;5.624;2022-09-25T00:57:30;4.50;;;2.50;;
63193;SDS011;49289;51.670;5.624;2022-09-25T00:59:19;5.40;;;2.50;;
63193;SDS011;49289;51.670;5.624;2022-09-25T01:01:06;3.80;;;2.20;;
63193;SDS011;49289;51.670;5.624;2022-09-25T01:02:54;4.60;;;2.30;;
63193;SDS011;49289;51.670;5.624;2022-09-25T01:04:42;5.40;;;2.30;;
63193;SDS011;49289;51.670;5.624;2022-09-25T01:06:29;6.70;;;2.40;;
63193;SDS011;49289;51.670;5.624;2022-09-25T01:08:18;5.80;;;2.60;;
63193;SDS011;49289;51.670;5.624;2022-09-25T01:10:04;6.10;;;2.50;;
63193;SDS011;49289;51.670;5.624;2022-09-25T01:11:53;4.60;;;2.30;;
63193;SDS011;49289;51.670;5.624;2022-09-25T01:13:41;4.10;;;2.60;;
63193;SDS011;49289;51.670;5.624;2022-09-25T01:15:30;5.70;;;2.60;;
63193;SDS011;49289;51.670;5.624;2022-09-25T01:17:19;4.90;;;2.40;;
63193;SDS011;49289;51.670;5.624;2022-09-25T01:19:09;4.00;;;2.60;;
63193;SDS011;49289;51.670;5.624;2022-09-25T01:21:03;3.90;;;2.40;;
63193;SDS011;49289;51.670;5.624;2022-09-25T01:22:56;7.10;;;2.90;;
63193;SDS011;49289;51.670;5.624;2022-09-25T01:24:47;8.40;;;2.40;;
63193;SDS011;49289;51.670;5.624;2022-09-25T01:29:04;4.90;;;2.50;;
63193;SDS011;49289;51.670;5.624;2022-09-25T01:30:51;4.30;;;2.40;;
63193;SDS011;49289;51.670;5.624;2022-09-25T01:32:42;5.80;;;2.60;;
63193;SDS011;49289;51.670;5.624;2022-09-25T01:34:37;2.90;;;2.50;;
63193;SDS011;49289;51.670;5.624;2022-09-25T01:36:27;4.40;;;2.60;;
63193;SDS011;49289;51.670;5.624;2022-09-25T01:38:19;4.20;;;2.60;;
63193;SDS011;49289;51.670;5.624;2022-09-25T01:40:14;6.80;;;2.90;;
63193;SDS011;49289;51.670;5.624;2022-09-25T01:41:56;7.70;;;2.50;;
63193;SDS011;49289;51.670;5.624;2022-09-25T01:43:43;4.10;;;2.40;;
63193;SDS011;49289;51.670;5.624;2022-09-25T01:45:32;4.70;;;2.30;;
63193;SDS011;49289;51.670;5.624;2022-09-25T01:47:20;3.80;;;2.50;;
63193;SDS011;49289;51.670;5.624;2022-09-25T01:49:08;5.70;;;2.10;;
63193;SDS011;49289;51.670;5.624;2022-09-25T01:50:58;4.20;;;2.00;;
63193;SDS011;49289;51.670;5.624;2022-09-25T01:52:45;4.90;;;2.40;;
63193;SDS011;49289;51.670;5.624;2022-09-25T01:54:35;5.30;;;2.50;;
63193;SDS011;49289;51.670;5.624;2022-09-25T01:56:22;4.00;;;2.10;;
63193;SDS011;49289;51.670;5.624;2022-09-25T01:58:13;7.50;;;2.40;;
63193;SDS011;49289;51.670;5.624;2022-09-25T01:59:59;7.70;;;3.20;;
63193;SDS011;49289;51.670;5.624;2022-09-25T02:01:46;3.60;;;2.10;;
63193;SDS011;49289;51.670;5.624;2022-09-25T02:03:35;2.50;;;2.20;;
63193;SDS011;49289;51.670;5.624;2022-09-25T02:05:24;5.00;;;2.10;;
63193;SDS011;49289;51.670;5.624;2022-09-25T02:07:11;4.20;;;2.20;;
63193;SDS011;49289;51.670;5.624;2022-09-25T02:08:59;6.40;;;2.30;;
63193;SDS011;49289;51.670;5.624;2022-09-25T02:10:47;5.50;;;2.20;;
63193;SDS011;49289;51.670;5.624;2022-09-25T02:12:36;5.40;;;2.20;;
63193;SDS011;49289;51.670;5.624;2022-09-25T02:14:22;4.70;;;2.40;;
63193;SDS011;49289;51.670;5.624;2022-09-25T02:16:11;4.20;;;2.10;;
63193;SDS011;49289;51.670;5.624;2022-09-25T02:17:58;4.00;;;2.30;;
63193;SDS011;49289;51.670;5.624;2022-09-25T02:19:46;5.30;;;2.40;;
63193;SDS011;49289;51.670;5.624;2022-09-25T02:21:37;4.80;;;2.20;;
63193;SDS011;49289;51.670;5.624;2022-09-25T02:23:13;4.40;;;2.00;;
63193;SDS011;49289;51.670;5.624;2022-09-25T02:25:03;5.60;;;2.30;;
63193;SDS011;49289;51.670;5.624;2022-09-25T02:26:49;5.70;;;2.20;;
63193;SDS011;49289;51.670;5.624;2022-09-25T02:28:37;5.10;;;2.40;;
63193;SDS011;49289;51.670;5.624;2022-09-25T02:30:27;5.70;;;2.20;;
63193;SDS011;49289;51.670;5.624;2022-09-25T02:32:15;3.40;;;2.20;;
63193;SDS011;49289;51.670;5.624;2022-09-25T02:34:02;5.10;;;2.30;;
63193;SDS011;49289;51.670;5.624;2022-09-25T02:35:50;4.00;;;2.30;;
63193;SDS011;49289;51.670;5.624;2022-09-25T02:37:37;6.60;;;2.10;;
63193;SDS011;49289;51.670;5.624;2022-09-25T02:39:24;5.10;;;2.40;;
63193;SDS011;49289;51.670;5.624;2022-09-25T02:41:14;4.90;;;2.40;;
63193;SDS011;49289;51.670;5.624;2022-09-25T02:43:02;4.70;;;2.30;;
63193;SDS011;49289;51.670;5.624;2022-09-25T02:44:52;5.00;;;2.20;;
63193;SDS011;49289;51.670;5.624;2022-09-25T02:46:48;4.30;;;2.20;;
63193;SDS011;49289;51.670;5.624;2022-09-25T02:48:37;5.40;;;2.30;;
63193;SDS011;49289;51.670;5.624;2022-09-25T02:50:26;5.70;;;2.60;;
63193;SDS011;49289;51.670;5.624;2022-09-25T02:52:15;3.30;;;2.10;;
63193;SDS011;49289;51.670;5.624;2022-09-25T02:54:03;3.70;;;2.20;;
63193;SDS011;49289;51.670;5.624;2022-09-25T02:55:50;4.60;;;2.20;;
63193;SDS011;49289;51.670;5.624;2022-09-25T02:57:38;4.80;;;2.30;;
63193;SDS011;49289;51.670;5.624;2022-09-25T02:59:26;3.70;;;2.20;;
63193;SDS011;49289;51.670;5.624;2022-09-25T03:01:13;5.90;;;2.30;;
63193;SDS011;49289;51.670;5.624;2022-09-25T03:03:01;3.60;;;2.30;;
63193;SDS011;49289;51.670;5.624;2022-09-25T03:04:49;4.10;;;2.10;;
63193;SDS011;49289;51.670;5.624;2022-09-25T03:06:38;5.00;;;2.70;;
63193;SDS011;49289;51.670;5.624;2022-09-25T03:08:26;3.50;;;2.60;;
63193;SDS011;49289;51.670;5.624;2022-09-25T03:10:15;5.70;;;2.30;;
63193;SDS011;49289;51.670;5.624;2022-09-25T03:12:02;6.00;;;2.40;;
63193;SDS011;49289;51.670;5.624;2022-09-25T03:13:49;7.10;;;2.30;;
63193;SDS011;49289;51.670;5.624;2022-09-25T03:15:39;3.90;;;2.30;;
63193;SDS011;49289;51.670;5.624;2022-09-25T03:17:28;3.30;;;2.40;;
63193;SDS011;49289;51.670;5.624;2022-09-25T03:19:16;3.80;;;2.40;;
63193;SDS011;49289;51.670;5.624;2022-09-25T03:21:05;3.30;;;2.40;;
63193;SDS011;49289;51.670;5.624;2022-09-25T03:22:52;4.10;;;2.30;;
63193;SDS011;49289;51.670;5.624;2022-09-25T03:24:39;5.00;;;2.40;;
63193;SDS011;49289;51.670;5.624;2022-09-25T03:26:26;3.10;;;2.60;;
63193;SDS011;49289;51.670;5.624;2022-09-25T03:28:13;5.10;;;2.30;;
63193;SDS011;49289;51.670;5.624;2022-09-25T03:30:01;5.30;;;2.30;;
63193;SDS011;49289;51.670;5.624;2022-09-25T03:31:49;2.60;;;2.30;;
63193;SDS011;49289;51.670;5.624;2022-09-25T03:33:38;4.60;;;2.60;;
63193;SDS011;49289;51.670;5.624;2022-09-25T03:35:25;5.50;;;2.30;;
63193;SDS011;49289;51.670;5.624;2022-09-25T03:37:13;7.60;;;3.00;;
63193;SDS011;49289;51.670;5.624;2022-09-25T03:39:00;4.50;;;2.40;;
63193;SDS011;49289;51.670;5.624;2022-09-25T03:40:47;2.90;;;2.20;;
63193;SDS011;49289;51.670;5.624;2022-09-25T03:42:34;4.10;;;2.40;;
63193;SDS011;49289;51.670;5.624;2022-09-25T03:44:21;4.90;;;2.40;;
63193;SDS011;49289;51.670;5.624;2022-09-25T03:46:09;3.60;;;2.20;;
63193;SDS011;49289;51.670;5.624;2022-09-25T03:47:57;3.90;;;2.70;;
63193;SDS011;49289;51.670;5.624;2022-09-25T03:49:45;5.70;;;2.70;;
63193;SDS011;49289;51.670;5.624;2022-09-25T03:51:33;7.00;;;2.50;;
63193;SDS011;49289;51.670;5.624;2022-09-25T03:53:21;3.10;;;2.70;;
63193;SDS011;49289;51.670;5.624;2022-09-25T03:55:08;4.60;;;2.60;;
63193;SDS011;49289;51.670;5.624;2022-09-25T03:56:57;4.90;;;2.70;;
63193;SDS011;49289;51.670;5.624;2022-09-25T03:58:45;4.20;;;2.60;;
63193;SDS011;49289;51.670;5.624;2022-09-25T04:00:33;4.80;;;2.70;;
63193;SDS011;49289;51.670;5.624;2022-09-25T04:02:22;3.50;;;2.50;;
63193;SDS011;49289;51.670;5.624;2022-09-25T04:04:10;4.60;;;2.50;;
63193;SDS011;49289;51.670;5.624;2022-09-25T04:05:58;6.10;;;2.70;;
63193;SDS011;49289;51.670;5.624;2022-09-25T04:07:46;3.70;;;2.70;;
63193;SDS011;49289;51.670;5.624;2022-09-25T04:09:34;4.50;;;2.50;;
63193;SDS011;49289;51.670;5.624;2022-09-25T04:11:22;6.30;;;2.70;;
63193;SDS011;49289;51.670;5.624;2022-09-25T04:13:09;2.80;;;2.60;;
63193;SDS011;49289;51.670;5.624;2022-09-25T04:14:57;4.00;;;2.60;;
63193;SDS011;49289;51.670;5.624;2022-09-25T04:16:47;3.70;;;2.80;;
63193;SDS011;49289;51.670;5.624;2022-09-25T04:18:35;3.40;;;2.50;;
63193;SDS011;49289;51.670;5.624;2022-09-25T04:20:23;5.70;;;2.70;;
63193;SDS011;49289;51.670;5.624;2022-09-25T04:22:12;5.30;;;2.70;;
63193;SDS011;49289;51.670;5.624;2022-09-25T04:24:01;2.70;;;2.40;;
63193;SDS011;49289;51.670;5.624;2022-09-25T04:25:48;5.10;;;3.10;;
63193;SDS011;49289;51.670;5.624;2022-09-25T04:27:35;5.30;;;2.70;;
63193;SDS011;49289;51.670;5.624;2022-09-25T04:29:23;3.20;;;2.90;;
63193;SDS011;49289;51.670;5.624;2022-09-25T04:31:11;5.90;;;2.90;;
63193;SDS011;49289;51.670;5.624;2022-09-25T04:32:59;5.00;;;3.10;;
63193;SDS011;49289;51.670;5.624;2022-09-25T04:34:48;4.40;;;2.80;;
63193;SDS011;49289;51.670;5.624;2022-09-25T04:36:35;4.50;;;3.20;;
63193;SDS011;49289;51.670;5.624;2022-09-25T04:38:22;4.80;;;3.30;;
63193;SDS011;49289;51.670;5.624;2022-09-25T04:40:11;5.10;;;3.30;;
63193;SDS011;49289;51.670;5.624;2022-09-25T04:41:59;4.40;;;3.00;;
63193;SDS011;49289;51.670;5.624;2022-09-25T04:43:46;3.80;;;3.00;;
63193;SDS011;49289;51.670;5.624;2022-09-25T04:45:35;3.90;;;3.00;;
63193;SDS011;49289;51.670;5.624;2022-09-25T04:47:23;4.30;;;3.10;;
63193;SDS011;49289;51.670;5.624;2022-09-25T04:49:10;6.50;;;3.20;;
63193;SDS011;49289;51.670;5.624;2022-09-25T04:51:00;5.70;;;3.30;;
63193;SDS011;49289;51.670;5.624;2022-09-25T04:52:48;5.70;;;3.00;;
63193;SDS011;49289;51.670;5.624;2022-09-25T04:54:37;8.10;;;3.60;;
63193;SDS011;49289;51.670;5.624;2022-09-25T04:56:25;4.70;;;3.40;;
63193;SDS011;49289;51.670;5.624;2022-09-25T04:58:13;6.40;;;3.50;;
63193;SDS011;49289;51.670;5.624;2022-09-25T05:00:03;4.30;;;3.40;;
63193;SDS011;49289;51.670;5.624;2022-09-25T05:01:52;5.00;;;3.20;;
63193;SDS011;49289;51.670;5.624;2022-09-25T05:03:40;5.70;;;3.10;;
63193;SDS011;49289;51.670;5.624;2022-09-25T05:05:28;5.10;;;3.50;;
63193;SDS011;49289;51.670;5.624;2022-09-25T05:07:17;6.10;;;3.50;;
63193;SDS011;49289;51.670;5.624;2022-09-25T05:09:05;4.80;;;3.30;;
63193;SDS011;49289;51.670;5.624;2022-09-25T05:10:53;5.40;;;3.70;;
63193;SDS011;49289;51.670;5.624;2022-09-25T05:12:42;4.40;;;3.50;;
63193;SDS011;49289;51.670;5.624;2022-09-25T05:14:31;4.70;;;3.70;;
63193;SDS011;49289;51.670;5.624;2022-09-25T05:16:20;5.00;;;3.70;;
63193;SDS011;49289;51.670;5.624;2022-09-25T05:18:10;4.80;;;3.50;;
63193;SDS011;49289;51.670;5.624;2022-09-25T05:19:56;5.00;;;3.40;;
63193;SDS011;49289;51.670;5.624;2022-09-25T05:21:43;4.10;;;3.20;;
63193;SDS011;49289;51.670;5.624;2022-09-25T05:23:31;3.50;;;3.20;;
63193;SDS011;49289;51.670;5.624;2022-09-25T05:25:18;5.10;;;3.60;;
63193;SDS011;49289;51.670;5.624;2022-09-25T05:27:06;4.20;;;3.30;;
63193;SDS011;49289;51.670;5.624;2022-09-25T05:28:53;4.90;;;3.60;;
63193;SDS011;49289;51.670;5.624;2022-09-25T05:30:40;3.70;;;3.20;;
63193;SDS011;49289;51.670;5.624;2022-09-25T05:32:27;5.50;;;3.70;;
63193;SDS011;49289;51.670;5.624;2022-09-25T05:34:00;4.90;;;3.40;;
63193;SDS011;49289;51.670;5.624;2022-09-25T05:35:49;4.70;;;3.90;;
63193;SDS011;49289;51.670;5.624;2022-09-25T05:37:38;6.00;;;4.00;;
63193;SDS011;49289;51.670;5.624;2022-09-25T05:39:27;4.60;;;3.90;;
63193;SDS011;49289;51.670;5.624;2022-09-25T05:41:16;5.70;;;3.90;;
63193;SDS011;49289;51.670;5.624;2022-09-25T05:43:05;5.20;;;3.60;;
63193;SDS011;49289;51.670;5.624;2022-09-25T05:44:37;4.60;;;3.70;;
63193;SDS011;49289;51.670;5.624;2022-09-25T05:46:24;4.30;;;3.70;;
63193;SDS011;49289;51.670;5.624;2022-09-25T05:48:11;4.90;;;3.70;;
63193;SDS011;49289;51.670;5.624;2022-09-25T05:49:58;5.50;;;3.90;;
63193;SDS011;49289;51.670;5.624;2022-09-25T05:51:45;6.80;;;4.50;;
63193;SDS011;49289;51.670;5.624;2022-09-25T05:53:32;6.00;;;4.10;;
63193;SDS011;49289;51.670;5.624;2022-09-25T05:55:20;6.80;;;4.30;;
63193;SDS011;49289;51.670;5.624;2022-09-25T05:57:09;6.30;;;3.80;;
63193;SDS011;49289;51.670;5.624;2022-09-25T05:58:58;5.50;;;3.80;;
63193;SDS011;49289;51.670;5.624;2022-09-25T06:00:47;5.40;;;3.90;;
63193;SDS011;49289;51.670;5.624;2022-09-25T06:02:36;5.90;;;4.00;;
63193;SDS011;49289;51.670;5.624;2022-09-25T06:04:25;5.20;;;4.00;;
63193;SDS011;49289;51.670;5.624;2022-09-25T06:06:13;6.30;;;4.50;;
63193;SDS011;49289;51.670;5.624;2022-09-25T06:08:01;7.30;;;4.80;;
63193;SDS011;49289;51.670;5.624;2022-09-25T06:09:49;4.80;;;4.30;;
63193;SDS011;49289;51.670;5.624;2022-09-25T06:11:36;7.20;;;4.10;;
63193;SDS011;49289;51.670;5.624;2022-09-25T06:13:23;5.60;;;4.10;;
63193;SDS011;49289;51.670;5.624;2022-09-25T06:14:55;5.50;;;4.30;;
63193;SDS011;49289;51.670;5.624;2022-09-25T06:16:41;5.00;;;4.50;;
63193;SDS011;49289;51.670;5.624;2022-09-25T06:18:28;4.90;;;4.20;;
63193;SDS011;49289;51.670;5.624;2022-09-25T06:20:15;6.70;;;4.30;;
63193;SDS011;49289;51.670;5.624;2022-09-25T06:22:02;6.30;;;4.50;;
63193;SDS011;49289;51.670;5.624;2022-09-25T06:23:51;6.40;;;4.80;;
63193;SDS011;49289;51.670;5.624;2022-09-25T06:25:40;10.40;;;4.90;;
63193;SDS011;49289;51.670;5.624;2022-09-25T06:27:29;6.50;;;5.00;;
63193;SDS011;49289;51.670;5.624;2022-09-25T06:29:18;7.10;;;4.70;;
63193;SDS011;49289;51.670;5.624;2022-09-25T06:31:06;6.40;;;4.70;;
63193;SDS011;49289;51.670;5.624;2022-09-25T06:32:54;9.50;;;5.10;;
63193;SDS011;49289;51.670;5.624;2022-09-25T06:34:26;6.80;;;5.20;;
63193;SDS011;49289;51.670;5.624;2022-09-25T06:36:14;5.80;;;5.10;;
63193;SDS011;49289;51.670;5.624;2022-09-25T06:38:02;6.30;;;4.80;;
63193;SDS011;49289;51.670;5.624;2022-09-25T06:39:50;6.30;;;4.70;;
63193;SDS011;49289;51.670;5.624;2022-09-25T06:41:38;6.80;;;5.00;;
63193;SDS011;49289;51.670;5.624;2022-09-25T06:43:27;5.30;;;4.60;;
63193;SDS011;49289;51.670;5.624;2022-09-25T06:45:15;5.80;;;4.80;;
63193;SDS011;49289;51.670;5.624;2022-09-25T06:47:03;6.00;;;4.50;;
63193;SDS011;49289;51.670;5.624;2022-09-25T06:48:55;6.70;;;4.90;;
63193;SDS011;49289;51.670;5.624;2022-09-25T06:50:45;6.20;;;4.60;;
63193;SDS011;49289;51.670;5.624;2022-09-25T06:52:31;5.70;;;4.50;;
63193;SDS011;49289;51.670;5.624;2022-09-25T06:54:18;6.30;;;4.60;;
63193;SDS011;49289;51.670;5.624;2022-09-25T06:56:06;6.10;;;4.70;;
63193;SDS011;49289;51.670;5.624;2022-09-25T06:57:55;7.00;;;4.60;;
63193;SDS011;49289;51.670;5.624;2022-09-25T06:59:43;5.40;;;4.40;;
63193;SDS011;49289;51.670;5.624;2022-09-25T07:01:32;5.80;;;4.60;;
63193;SDS011;49289;51.670;5.624;2022-09-25T07:03:21;4.80;;;4.30;;
63193;SDS011;49289;51.670;5.624;2022-09-25T07:05:10;5.70;;;4.60;;
63193;SDS011;49289;51.670;5.624;2022-09-25T07:06:58;5.10;;;4.60;;
63193;SDS011;49289;51.670;5.624;2022-09-25T07:08:45;6.60;;;4.80;;
63193;SDS011;49289;51.670;5.624;2022-09-25T07:10:33;7.50;;;4.80;;
63193;SDS011;49289;51.670;5.624;2022-09-25T07:12:21;5.00;;;4.30;;
63193;SDS011;49289;51.670;5.624;2022-09-25T07:14:09;9.30;;;4.40;;
63193;SDS011;49289;51.670;5.624;2022-09-25T07:15:58;5.60;;;4.30;;
63193;SDS011;49289;51.670;5.624;2022-09-25T07:17:46;7.80;;;4.20;;
63193;SDS011;49289;51.670;5.624;2022-09-25T07:19:35;5.30;;;3.70;;
63193;SDS011;49289;51.670;5.624;2022-09-25T07:21:23;4.70;;;3.80;;
63193;SDS011;49289;51.670;5.624;2022-09-25T07:23:11;5.90;;;3.90;;
63193;SDS011;49289;51.670;5.624;2022-09-25T07:24:59;5.20;;;3.70;;
63193;SDS011;49289;51.670;5.624;2022-09-25T07:26:46;4.90;;;3.90;;
63193;SDS011;49289;51.670;5.624;2022-09-25T07:28:33;6.10;;;4.00;;
63193;SDS011;49289;51.670;5.624;2022-09-25T07:30:20;5.70;;;4.20;;
63193;SDS011;49289;51.670;5.624;2022-09-25T07:32:08;7.10;;;4.00;;
63193;SDS011;49289;51.670;5.624;2022-09-25T07:33:56;4.80;;;3.80;;
63193;SDS011;49289;51.670;5.624;2022-09-25T07:35:45;6.20;;;3.90;;
63193;SDS011;49289;51.670;5.624;2022-09-25T07:37:33;6.70;;;3.90;;
63193;SDS011;49289;51.670;5.624;2022-09-25T07:39:21;5.10;;;3.70;;
63193;SDS011;49289;51.670;5.624;2022-09-25T07:41:10;4.50;;;3.70;;
63193;SDS011;49289;51.670;5.624;2022-09-25T07:43:02;5.50;;;4.10;;
63193;SDS011;49289;51.670;5.624;2022-09-25T07:44:49;4.50;;;3.70;;
63193;SDS011;49289;51.670;5.624;2022-09-25T07:46:37;5.10;;;4.00;;
63193;SDS011;49289;51.670;5.624;2022-09-25T07:48:25;6.40;;;4.00;;
63193;SDS011;49289;51.670;5.624;2022-09-25T07:50:13;6.80;;;4.00;;
63193;SDS011;49289;51.670;5.624;2022-09-25T07:52:00;6.30;;;3.90;;
63193;SDS011;49289;51.670;5.624;2022-09-25T07:53:47;6.20;;;3.30;;
63193;SDS011;49289;51.670;5.624;2022-09-25T07:55:35;4.60;;;3.80;;
63193;SDS011;49289;51.670;5.624;2022-09-25T07:57:23;5.40;;;3.40;;
63193;SDS011;49289;51.670;5.624;2022-09-25T07:59:11;5.20;;;3.50;;
63193;SDS011;49289;51.670;5.624;2022-09-25T08:01:03;4.50;;;3.40;;
63193;SDS011;49289;51.670;5.624;2022-09-25T08:02:57;5.70;;;3.00;;
63193;SDS011;49289;51.670;5.624;2022-09-25T08:04:46;4.20;;;3.00;;
63193;SDS011;49289;51.670;5.624;2022-09-25T08:06:35;5.70;;;2.90;;
63193;SDS011;49289;51.670;5.624;2022-09-25T08:08:24;5.10;;;2.90;;
63193;SDS011;49289;51.670;5.624;2022-09-25T08:10:12;4.70;;;2.60;;
63193;SDS011;49289;51.670;5.624;2022-09-25T08:12:01;3.00;;;2.70;;
63193;SDS011;49289;51.670;5.624;2022-09-25T08:13:51;5.80;;;2.70;;
63193;SDS011;49289;51.670;5.624;2022-09-25T08:15:40;4.70;;;2.70;;
63193;SDS011;49289;51.670;5.624;2022-09-25T08:17:28;4.10;;;2.30;;
63193;SDS011;49289;51.670;5.624;2022-09-25T08:19:16;4.30;;;2.30;;
63193;SDS011;49289;51.670;5.624;2022-09-25T08:21:05;6.20;;;2.30;;
63193;SDS011;49289;51.670;5.624;2022-09-25T08:22:37;3.20;;;2.30;;
63193;SDS011;49289;51.670;5.624;2022-09-25T08:24:25;5.10;;;2.00;;
63193;SDS011;49289;51.670;5.624;2022-09-25T08:26:12;3.90;;;2.10;;
63193;SDS011;49289;51.670;5.624;2022-09-25T08:27:59;2.90;;;1.70;;
63193;SDS011;49289;51.670;5.624;2022-09-25T08:29:48;3.20;;;1.70;;
63193;SDS011;49289;51.670;5.624;2022-09-25T08:31:37;4.70;;;1.60;;
63193;SDS011;49289;51.670;5.624;2022-09-25T08:33:26;3.10;;;1.60;;
63193;SDS011;49289;51.670;5.624;2022-09-25T08:35:14;3.20;;;1.50;;
63193;SDS011;49289;51.670;5.624;2022-09-25T08:37:02;5.00;;;1.90;;
63193;SDS011;49289;51.670;5.624;2022-09-25T08:38:50;4.20;;;1.60;;
63193;SDS011;49289;51.670;5.624;2022-09-25T08:40:37;3.70;;;1.70;;
63193;SDS011;49289;51.670;5.624;2022-09-25T08:42:24;4.10;;;1.70;;
63193;SDS011;49289;51.670;5.624;2022-09-25T08:44:15;2.90;;;1.70;;
63193;SDS011;49289;51.670;5.624;2022-09-25T08:46:05;4.30;;;1.70;;
63193;SDS011;49289;51.670;5.624;2022-09-25T08:47:53;2.70;;;1.70;;
63193;SDS011;49289;51.670;5.624;2022-09-25T08:49:42;6.80;;;1.70;;
63193;SDS011;49289;51.670;5.624;2022-09-25T08:51:31;4.40;;;1.60;;
63193;SDS011;49289;51.670;5.624;2022-09-25T08:53:20;2.90;;;1.60;;
63193;SDS011;49289;51.670;5.624;2022-09-25T08:55:07;3.90;;;1.60;;
63193;SDS011;49289;51.670;5.624;2022-09-25T08:56:57;3.70;;;1.70;;
63193;SDS011;49289;51.670;5.624;2022-09-25T08:58:46;2.30;;;1.40;;
63193;SDS011;49289;51.670;5.624;2022-09-25T09:00:35;5.40;;;1.90;;
63193;SDS011;49289;51.670;5.624;2022-09-25T09:02:23;2.60;;;1.50;;
63193;SDS011;49289;51.670;5.624;2022-09-25T09:04:12;1.60;;;1.40;;
63193;SDS011;49289;51.670;5.624;2022-09-25T09:06:01;4.80;;;1.60;;
63193;SDS011;49289;51.670;5.624;2022-09-25T09:07:48;3.40;;;1.30;;
63193;SDS011;49289;51.670;5.624;2022-09-25T09:09:35;3.80;;;1.30;;
63193;SDS011;49289;51.670;5.624;2022-09-25T09:11:07;5.50;;;1.30;;
63193;SDS011;49289;51.670;5.624;2022-09-25T09:12:57;3.30;;;1.40;;
63193;SDS011;49289;51.670;5.624;2022-09-25T09:14:45;4.30;;;1.20;;
63193;SDS011;49289;51.670;5.624;2022-09-25T09:16:34;2.80;;;1.20;;
63193;SDS011;49289;51.670;5.624;2022-09-25T09:18:25;3.80;;;1.10;;
63193;SDS011;49289;51.670;5.624;2022-09-25T09:19:58;1.40;;;0.90;;
63193;SDS011;49289;51.670;5.624;2022-09-25T09:21:46;3.10;;;1.10;;
63193;SDS011;49289;51.670;5.624;2022-09-25T09:23:32;3.80;;;1.30;;
63193;SDS011;49289;51.670;5.624;2022-09-25T09:25:24;1.30;;;1.00;;
63193;SDS011;49289;51.670;5.624;2022-09-25T09:27:16;4.30;;;1.20;;
63193;SDS011;49289;51.670;5.624;2022-09-25T09:29:11;3.40;;;1.00;;
63193;SDS011;49289;51.670;5.624;2022-09-25T09:31:04;4.80;;;1.10;;
63193;SDS011;49289;51.670;5.624;2022-09-25T09:32:54;1.90;;;1.00;;
63193;SDS011;49289;51.670;5.624;2022-09-25T09:34:48;3.70;;;0.90;;
63193;SDS011;49289;51.670;5.624;2022-09-25T09:36:40;1.90;;;0.90;;
63193;SDS011;49289;51.670;5.624;2022-09-25T09:38:28;2.50;;;0.90;;
63193;SDS011;49289;51.670;5.624;2022-09-25T09:40:22;2.30;;;0.90;;
63193;SDS011;49289;51.670;5.624;2022-09-25T09:42:12;2.10;;;0.80;;
63193;SDS011;49289;51.670;5.624;2022-09-25T09:44:03;2.50;;;1.10;;
63193;SDS011;49289;51.670;5.624;2022-09-25T09:45:54;1.20;;;0.80;;
63193;SDS011;49289;51.670;5.624;2022-09-25T09:47:43;2.30;;;0.90;;
63193;SDS011;49289;51.670;5.624;2022-09-25T09:49:32;2.00;;;0.80;;
63193;SDS011;49289;51.670;5.624;2022-09-25T09:51:20;1.80;;;0.80;;
63193;SDS011;49289;51.670;5.624;2022-09-25T09:53:09;2.70;;;0.70;;
63193;SDS011;49289;51.670;5.624;2022-09-25T09:55:01;1.10;;;0.80;;
63193;SDS011;49289;51.670;5.624;2022-09-25T09:56:45;2.30;;;0.80;;
63193;SDS011;49289;51.670;5.624;2022-09-25T09:58:34;2.90;;;0.90;;
63193;SDS011;49289;51.670;5.624;2022-09-25T10:00:21;2.10;;;0.80;;
63193;SDS011;49289;51.670;5.624;2022-09-25T10:02:23;3.20;;;0.90;;
63193;SDS011;49289;51.670;5.624;2022-09-25T10:04:37;1.90;;;0.80;;
63193;SDS011;49289;51.670;5.624;2022-09-25T10:06:24;2.30;;;0.80;;
63193;SDS011;49289;51.670;5.624;2022-09-25T10:08:11;3.00;;;0.80;;
63193;SDS011;49289;51.670;5.624;2022-09-25T10:10:00;2.00;;;1.00;;
63193;SDS011;49289;51.670;5.624;2022-09-25T10:11:54;2.90;;;0.90;;
63193;SDS011;49289;51.670;5.624;2022-09-25T10:13:40;1.80;;;0.90;;
63193;SDS011;49289;51.670;5.624;2022-09-25T10:15:31;1.60;;;0.80;;
63193;SDS011;49289;51.670;5.624;2022-09-25T10:17:18;2.00;;;0.90;;
63193;SDS011;49289;51.670;5.624;2022-09-25T10:19:06;2.30;;;0.80;;
63193;SDS011;49289;51.670;5.624;2022-09-25T10:20:54;2.40;;;0.80;;
63193;SDS011;49289;51.670;5.624;2022-09-25T10:22:43;1.60;;;0.70;;
63193;SDS011;49289;51.670;5.624;2022-09-25T10:26:33;2.40;;;0.90;;
63193;SDS011;49289;51.670;5.624;2022-09-25T10:28:26;1.80;;;0.80;;
63193;SDS011;49289;51.670;5.624;2022-09-25T10:30:21;1.70;;;0.90;;
63193;SDS011;49289;51.670;5.624;2022-09-25T10:32:09;3.50;;;0.90;;
63193;SDS011;49289;51.670;5.624;2022-09-25T10:34:03;2.50;;;0.80;;
63193;SDS011;49289;51.670;5.624;2022-09-25T10:35:50;3.10;;;1.50;;
63193;SDS011;49289;51.670;5.624;2022-09-25T10:37:37;2.20;;;0.70;;
63193;SDS011;49289;51.670;5.624;2022-09-25T10:39:30;1.20;;;0.90;;
63193;SDS011;49289;51.670;5.624;2022-09-25T10:41:16;2.40;;;0.90;;
63193;SDS011;49289;51.670;5.624;2022-09-25T10:43:13;1.60;;;0.80;;
63193;SDS011;49289;51.670;5.624;2022-09-25T10:45:05;1.90;;;0.90;;
63193;SDS011;49289;51.670;5.624;2022-09-25T10:47:00;2.50;;;1.00;;
63193;SDS011;49289;51.670;5.624;2022-09-25T10:49:14;2.50;;;1.00;;
63193;SDS011;49289;51.670;5.624;2022-09-25T10:51:08;1.00;;;0.80;;
63193;SDS011;49289;51.670;5.624;2022-09-25T10:52:56;3.10;;;0.90;;
63193;SDS011;49289;51.670;5.624;2022-09-25T10:54:43;2.40;;;0.90;;
63193;SDS011;49289;51.670;5.624;2022-09-25T10:56:33;1.20;;;0.80;;
63193;SDS011;49289;51.670;5.624;2022-09-25T10:58:23;2.90;;;0.80;;
63193;SDS011;49289;51.670;5.624;2022-09-25T11:00:18;0.90;;;0.80;;